Time;durP1;ratioP1;P1;durP2;ratioP2;P2;SDS_P1;SDS_P2;PMS_P1;PMS_P2;Temp;Humidity;BMP_temperature;BMP_pressure;BME280_temperature;BME280_humidity;BME280_pressure;Samples;Min_cycle;Max_cycle;Signal;HPM_P1;HPM_P2
2023/07/19 00:00:14;;;;;;;8.68;4.05;;;16.60;99.90;;;;;;5045519;28;20021;-71
2023/07/19 00:02:39;;;;;;;7.53;3.95;;;16.60;99.90;;;;;;5045583;28;20033;-72
2023/07/19 00:05:07;;;;;;;6.60;3.95;;;16.60;99.90;;;;;;5046119;28;20112;-72
2023/07/19 00:07:33;;;;;;;7.32;4.15;;;16.60;99.90;;;;;;5045757;28;20072;-70
2023/07/19 00:09:58;;;;;;;7.32;4.30;;;16.60;99.90;;;;;;5044033;28;20079;-71
2023/07/19 00:12:24;;;;;;;7.10;4.63;;;16.60;99.90;;;;;;5044338;28;20029;-71
2023/07/19 00:14:50;;;;;;;8.52;4.63;;;16.60;99.90;;;;;;5044118;28;20467;-71
2023/07/19 00:17:15;;;;;;;8.23;4.15;;;16.60;99.90;;;;;;5045013;28;20032;-72
2023/07/19 00:19:41;;;;;;;12.65;4.53;;;16.60;99.90;;;;;;5045508;28;20045;-71
2023/07/19 00:22:08;;;;;;;10.50;4.72;;;16.50;99.90;;;;;;5045765;28;20120;-72
2023/07/19 00:24:37;;;;;;;7.97;4.50;;;16.50;99.90;;;;;;5045165;28;20029;-71
2023/07/19 00:27:03;;;;;;;9.50;4.82;;;16.50;99.90;;;;;;5045129;28;20022;-71
2023/07/19 00:29:28;;;;;;;13.15;4.63;;;16.50;99.90;;;;;;5045049;28;20075;-71
2023/07/19 00:31:54;;;;;;;8.82;4.82;;;16.40;99.90;;;;;;5045017;28;20021;-71
2023/07/19 00:34:20;;;;;;;9.98;4.25;;;16.50;99.90;;;;;;5045173;28;20105;-72
2023/07/19 00:36:45;;;;;;;8.15;4.43;;;16.40;99.90;;;;;;5044351;28;20021;-71
2023/07/19 00:39:12;;;;;;;8.82;4.95;;;16.40;99.90;;;;;;5043695;28;20037;-72
2023/07/19 00:41:37;;;;;;;7.28;4.45;;;16.40;99.90;;;;;;5045182;28;20021;-72
2023/07/19 00:44:03;;;;;;;6.93;4.70;;;16.40;99.90;;;;;;5044756;28;20032;-70
2023/07/19 00:46:29;;;;;;;13.48;4.97;;;16.40;99.90;;;;;;5042618;28;20048;-71
2023/07/19 00:48:56;;;;;;;8.98;5.22;;;16.30;99.90;;;;;;5044862;28;20025;-73
2023/07/19 00:51:22;;;;;;;9.80;5.28;;;16.30;99.90;;;;;;5042532;28;20053;-70
2023/07/19 00:53:48;;;;;;;8.90;5.40;;;16.30;99.90;;;;;;5044350;28;20039;-70
2023/07/19 00:56:14;;;;;;;8.88;5.72;;;16.30;99.90;;;;;;5044187;28;20455;-71
2023/07/19 00:58:40;;;;;;;11.90;5.07;;;16.30;99.90;;;;;;5044457;28;20101;-71
2023/07/19 01:01:06;;;;;;;10.63;5.40;;;16.30;99.90;;;;;;5044959;28;20509;-71
2023/07/19 01:03:32;;;;;;;11.75;5.68;;;16.30;99.90;;;;;;5044623;28;20025;-71
2023/07/19 01:05:59;;;;;;;9.10;5.22;;;16.30;99.90;;;;;;5044357;28;20025;-71
2023/07/19 01:08:26;;;;;;;8.10;4.97;;;16.30;99.90;;;;;;5044201;28;20025;-71
2023/07/19 01:10:52;;;;;;;8.05;4.50;;;16.30;99.90;;;;;;5043672;28;20021;-71
2023/07/19 01:13:17;;;;;;;9.05;5.30;;;16.30;99.90;;;;;;5044229;28;20442;-70
2023/07/19 01:15:43;;;;;;;8.13;5.40;;;16.30;99.90;;;;;;5044480;28;20026;-70
2023/07/19 01:18:09;;;;;;;10.32;5.10;;;16.30;99.90;;;;;;5044161;28;20048;-70
2023/07/19 01:20:35;;;;;;;9.15;4.75;;;16.30;99.90;;;;;;5044432;28;20467;-72
2023/07/19 01:23:01;;;;;;;9.32;5.15;;;16.30;99.90;;;;;;5043217;28;20022;-71
2023/07/19 01:25:27;;;;;;;10.75;5.25;;;16.30;99.90;;;;;;5043000;28;20104;-71
2023/07/19 01:27:53;;;;;;;8.02;5.00;;;16.30;99.90;;;;;;5043944;28;20454;-69
2023/07/19 01:30:19;;;;;;;9.75;5.60;;;16.30;99.90;;;;;;5042497;28;20017;-70
2023/07/19 01:32:44;;;;;;;10.02;6.13;;;16.30;99.90;;;;;;5042601;28;20075;-70
2023/07/19 01:35:10;;;;;;;9.52;5.43;;;16.30;99.90;;;;;;5044282;28;20018;-71
2023/07/19 01:37:36;;;;;;;11.20;6.22;;;16.20;99.90;;;;;;5044376;28;20113;-70
2023/07/19 01:40:03;;;;;;;9.70;5.68;;;16.30;99.90;;;;;;5042159;28;20052;-70
2023/07/19 01:42:28;;;;;;;10.32;5.60;;;16.20;99.90;;;;;;5043688;28;20048;-71
2023/07/19 01:44:54;;;;;;;9.27;5.70;;;16.20;99.90;;;;;;5043749;28;20029;-70
2023/07/19 01:47:20;;;;;;;10.50;5.63;;;16.20;99.90;;;;;;5043665;28;20049;-70
2023/07/19 01:49:45;;;;;;;10.10;5.70;;;16.20;99.90;;;;;;5043122;28;20073;-71
2023/07/19 01:52:11;;;;;;;10.63;5.57;;;16.10;99.90;;;;;;5043625;28;20133;-71
2023/07/19 01:54:37;;;;;;;9.27;5.93;;;16.10;99.90;;;;;;5043635;28;20025;-70
2023/07/19 01:57:04;;;;;;;8.20;5.47;;;16.10;99.90;;;;;;5043773;28;20041;-70
2023/07/19 01:59:30;;;;;;;8.88;6.18;;;16.10;99.90;;;;;;5041727;28;20033;-70
2023/07/19 02:01:55;;;;;;;8.57;5.47;;;16.10;99.90;;;;;;5043460;28;20072;-70
2023/07/19 02:04:21;;;;;;;10.27;6.53;;;16.10;99.90;;;;;;5042298;28;20049;-70
2023/07/19 02:06:47;;;;;;;11.13;6.30;;;16.10;99.90;;;;;;5043495;28;20021;-72
2023/07/19 02:09:12;;;;;;;13.35;6.50;;;16.00;99.90;;;;;;5043387;28;21705;-70
2023/07/19 02:11:38;;;;;;;9.98;6.63;;;16.00;99.90;;;;;;5043652;28;20033;-71
2023/07/19 02:14:04;;;;;;;9.15;5.97;;;16.00;99.90;;;;;;5042811;28;20025;-69
2023/07/19 02:16:29;;;;;;;8.77;6.60;;;16.00;99.90;;;;;;5043154;28;20083;-70
2023/07/19 02:18:55;;;;;;;12.57;6.93;;;16.00;99.90;;;;;;5043138;28;20038;-70
2023/07/19 02:21:21;;;;;;;14.63;6.95;;;16.00;99.90;;;;;;5042103;28;20029;-69
2023/07/19 02:23:46;;;;;;;16.15;7.20;;;16.00;99.90;;;;;;5042932;28;20036;-72
2023/07/19 02:26:12;;;;;;;15.60;7.82;;;16.00;99.90;;;;;;5043130;28;20028;-71
2023/07/19 02:28:38;;;;;;;12.73;8.18;;;16.00;99.90;;;;;;5042942;28;20065;-71
2023/07/19 02:31:03;;;;;;;14.85;7.63;;;15.90;99.90;;;;;;5043013;28;20072;-71
2023/07/19 02:33:29;;;;;;;12.23;8.80;;;16.00;99.90;;;;;;5042891;28;20055;-70
2023/07/19 02:35:55;;;;;;;11.95;8.05;;;15.90;99.90;;;;;;5041968;28;20092;-71
2023/07/19 02:38:21;;;;;;;13.90;8.65;;;15.90;99.90;;;;;;5042726;28;20048;-71
2023/07/19 02:40:47;;;;;;;13.70;8.82;;;16.00;99.90;;;;;;5042672;28;20025;-70
2023/07/19 02:43:13;;;;;;;15.07;9.10;;;16.00;99.90;;;;;;5042356;28;20052;-70
2023/07/19 02:45:39;;;;;;;15.63;9.43;;;16.00;99.90;;;;;;5040628;28;20022;-71
2023/07/19 02:48:05;;;;;;;13.70;8.98;;;16.00;99.90;;;;;;5041587;28;20081;-71
2023/07/19 02:50:30;;;;;;;10.98;8.43;;;16.00;99.90;;;;;;5042279;28;20049;-70
2023/07/19 02:52:57;;;;;;;9.90;7.47;;;16.00;99.90;;;;;;5042596;28;20025;-70
2023/07/19 02:55:22;;;;;;;14.65;8.70;;;16.00;99.90;;;;;;5040565;28;20048;-70
2023/07/19 02:57:48;;;;;;;17.33;8.60;;;16.00;99.90;;;;;;5041402;28;20018;-70
2023/07/19 03:00:14;;;;;;;11.57;7.63;;;16.00;99.90;;;;;;5041187;28;21486;-71
2023/07/19 03:02:39;;;;;;;12.07;7.82;;;15.90;99.90;;;;;;5042457;28;20057;-71
2023/07/19 03:05:05;;;;;;;13.10;7.85;;;15.90;99.90;;;;;;5041798;28;20025;-72
2023/07/19 03:07:32;;;;;;;12.90;7.75;;;15.90;99.90;;;;;;5041295;28;20021;-71
2023/07/19 03:09:58;;;;;;;10.70;7.50;;;15.90;99.90;;;;;;5041908;28;20437;-70
2023/07/19 03:12:24;;;;;;;13.15;7.50;;;15.90;99.90;;;;;;5041435;28;20526;-71
2023/07/19 03:14:50;;;;;;;11.10;7.53;;;15.90;99.90;;;;;;5042228;28;20032;-70
2023/07/19 03:17:15;;;;;;;13.27;7.65;;;15.90;99.90;;;;;;5041272;28;20097;-71
2023/07/19 03:19:41;;;;;;;11.75;7.30;;;15.90;99.90;;;;;;5042132;28;20040;-72
2023/07/19 03:22:06;;;;;;;17.20;8.55;;;15.90;99.90;;;;;;5042209;28;20037;-71
2023/07/19 03:24:33;;;;;;;11.57;7.78;;;15.90;99.90;;;;;;5042022;28;20026;-69
2023/07/19 03:26:58;;;;;;;15.60;8.52;;;15.90;99.90;;;;;;5040329;28;20045;-70
2023/07/19 03:29:24;;;;;;;15.05;8.57;;;15.80;99.90;;;;;;5041249;28;20021;-70
2023/07/19 03:31:49;;;;;;;14.07;8.85;;;15.80;99.90;;;;;;5041540;28;20026;-69
2023/07/19 03:34:15;;;;;;;14.73;8.60;;;15.80;99.90;;;;;;5041944;28;20033;-71
2023/07/19 03:36:41;;;;;;;13.45;8.77;;;15.90;99.90;;;;;;5041989;28;20028;-71
2023/07/19 03:39:06;;;;;;;15.18;9.15;;;15.80;99.90;;;;;;5040543;28;20125;-70
2023/07/19 03:41:32;;;;;;;13.20;8.57;;;15.80;99.90;;;;;;5041683;28;20018;-70
2023/07/19 03:43:57;;;;;;;13.20;8.90;;;15.80;99.90;;;;;;5041991;28;20040;-71
2023/07/19 03:46:23;;;;;;;13.07;9.43;;;15.80;99.90;;;;;;5041535;28;20098;-71
2023/07/19 03:48:49;;;;;;;13.98;9.18;;;15.80;99.90;;;;;;5041882;28;20094;-70
2023/07/19 03:51:15;;;;;;;18.70;9.85;;;15.80;99.90;;;;;;5041199;28;20072;-71
2023/07/19 03:53:40;;;;;;;16.00;9.55;;;15.80;99.90;;;;;;5041500;28;20045;-71
2023/07/19 03:56:06;;;;;;;14.55;9.45;;;15.80;99.90;;;;;;5042000;28;20018;-72
2023/07/19 03:58:32;;;;;;;11.45;8.82;;;15.80;99.90;;;;;;5040700;28;20049;-71
2023/07/19 04:00:59;;;;;;;15.55;10.30;;;15.80;99.90;;;;;;5041122;28;20037;-70
2023/07/19 04:03:26;;;;;;;17.02;10.40;;;15.80;99.90;;;;;;5041653;28;20041;-69
2023/07/19 04:05:54;;;;;;;18.52;11.05;;;15.80;99.90;;;;;;5040979;28;20086;-68
2023/07/19 04:08:20;;;;;;;17.88;10.40;;;15.80;99.90;;;;;;5041199;28;20064;-68
2023/07/19 04:10:45;;;;;;;21.25;11.15;;;15.70;99.90;;;;;;5041706;28;20052;-69
2023/07/19 04:13:12;;;;;;;17.67;11.82;;;15.70;99.90;;;;;;5041762;28;20443;-69
2023/07/19 04:15:38;;;;;;;15.98;11.18;;;15.80;99.90;;;;;;5041293;28;20017;-71
2023/07/19 04:18:06;;;;;;;17.63;10.45;;;15.70;99.90;;;;;;5040848;28;21933;-70
2023/07/19 04:20:32;;;;;;;17.95;11.25;;;15.70;99.90;;;;;;5041565;28;20025;-69
2023/07/19 04:22:57;;;;;;;18.65;11.95;;;15.70;99.90;;;;;;5041096;28;20037;-69
2023/07/19 04:25:24;;;;;;;22.10;12.18;;;15.60;99.90;;;;;;5040166;28;20026;-69
2023/07/19 04:27:51;;;;;;;19.05;11.13;;;15.70;99.90;;;;;;5041179;28;20033;-68
2023/07/19 04:30:17;;;;;;;20.42;12.00;;;15.70;99.90;;;;;;5040927;28;20033;-69
2023/07/19 04:32:43;;;;;;;18.85;11.50;;;15.70;99.90;;;;;;5039004;28;20026;-70
2023/07/19 04:35:09;;;;;;;18.02;12.32;;;15.60;99.90;;;;;;5041371;28;20428;-69
2023/07/19 04:37:38;;;;;;;18.67;12.65;;;15.60;99.90;;;;;;5039711;28;20025;-69
2023/07/19 04:40:05;;;;;;;19.63;12.00;;;15.60;99.90;;;;;;5040945;28;20049;-69
2023/07/19 04:42:31;;;;;;;22.67;12.80;;;15.60;99.90;;;;;;5041211;28;20116;-69
2023/07/19 04:44:57;;;;;;;20.60;12.80;;;15.60;99.90;;;;;;5042115;28;20049;-70
2023/07/19 04:47:22;;;;;;;22.13;12.52;;;15.50;99.90;;;;;;5044879;28;20506;-70
2023/07/19 04:49:48;;;;;;;20.27;12.18;;;15.60;99.90;;;;;;5044821;28;20497;-68
2023/07/19 04:52:14;;;;;;;18.27;12.48;;;15.50;99.90;;;;;;5044563;28;20090;-68
2023/07/19 04:54:39;;;;;;;18.73;11.52;;;15.60;99.90;;;;;;5043432;28;20038;-70
2023/07/19 04:57:06;;;;;;;16.23;10.50;;;15.60;99.90;;;;;;5044259;28;20022;-73
2023/07/19 04:59:32;;;;;;;17.88;10.63;;;15.60;99.90;;;;;;5043504;28;20029;-69
2023/07/19 05:01:57;;;;;;;17.80;10.90;;;15.60;99.90;;;;;;5044694;28;20064;-69
2023/07/19 05:04:23;;;;;;;17.40;10.98;;;15.70;99.90;;;;;;5044064;28;20043;-69
2023/07/19 05:06:49;;;;;;;17.95;9.77;;;15.70;99.90;;;;;;5041023;28;20047;-70
2023/07/19 05:09:15;;;;;;;15.70;9.90;;;15.70;99.90;;;;;;5040800;28;20021;-69
2023/07/19 05:11:41;;;;;;;14.95;9.32;;;15.70;99.90;;;;;;5044158;28;20026;-69
2023/07/19 05:14:07;;;;;;;12.68;9.38;;;15.70;99.90;;;;;;5043937;28;20083;-70
2023/07/19 05:16:33;;;;;;;13.98;8.60;;;15.70;99.90;;;;;;5044275;28;20021;-70
2023/07/19 05:18:59;;;;;;;12.48;9.07;;;15.70;99.90;;;;;;5043778;28;20038;-69
2023/07/19 05:21:24;;;;;;;17.80;9.43;;;15.70;99.90;;;;;;5044273;28;20040;-70
2023/07/19 05:23:50;;;;;;;16.33;9.57;;;15.70;99.90;;;;;;5043821;28;20041;-69
2023/07/19 05:26:16;;;;;;;17.63;9.20;;;15.80;99.90;;;;;;5043782;28;20022;-70
2023/07/19 05:28:42;;;;;;;12.95;8.63;;;15.70;99.90;;;;;;5044221;28;20418;-69
2023/07/19 05:31:08;;;;;;;15.68;9.75;;;15.70;99.90;;;;;;5043881;28;20021;-70
2023/07/19 05:33:34;;;;;;;16.45;9.00;;;15.70;99.90;;;;;;5043080;28;20101;-70
2023/07/19 05:36:00;;;;;;;14.57;8.75;;;15.70;99.90;;;;;;5041799;28;20033;-70
2023/07/19 05:38:26;;;;;;;13.25;8.55;;;15.70;99.90;;;;;;5042862;28;20047;-68
2023/07/19 05:40:52;;;;;;;12.65;8.77;;;15.60;99.90;;;;;;5042934;28;20109;-70
2023/07/19 05:43:18;;;;;;;14.18;8.85;;;15.70;99.90;;;;;;5042523;28;20029;-70
2023/07/19 05:45:44;;;;;;;15.73;9.18;;;15.60;99.90;;;;;;5042473;28;20081;-70
2023/07/19 05:48:10;;;;;;;18.35;8.85;;;15.60;99.90;;;;;;5044030;28;20393;-71
2023/07/19 05:50:37;;;;;;;13.63;8.80;;;15.70;99.90;;;;;;5043544;28;20092;-69
2023/07/19 05:53:02;;;;;;;11.38;8.55;;;15.70;99.90;;;;;;5043895;28;20026;-69
2023/07/19 05:55:28;;;;;;;14.45;8.27;;;15.70;99.90;;;;;;5041963;28;20398;-69
2023/07/19 05:57:54;;;;;;;16.13;9.40;;;15.70;99.90;;;;;;5038032;28;20044;-69
2023/07/19 06:00:24;;;;;;;18.20;8.63;;;15.70;99.90;;;;;;5041656;28;20018;-70
2023/07/19 06:02:52;;;;;;;14.90;8.50;;;15.70;99.90;;;;;;5042291;28;20394;-69
2023/07/19 06:05:18;;;;;;;16.92;9.38;;;15.70;99.90;;;;;;5041727;28;20025;-69
2023/07/19 06:07:45;;;;;;;13.90;9.25;;;15.70;99.90;;;;;;5039868;28;20075;-70
2023/07/19 06:10:11;;;;;;;16.02;9.30;;;15.80;99.90;;;;;;5042065;28;20014;-70
2023/07/19 06:12:36;;;;;;;16.65;9.23;;;15.80;99.90;;;;;;5041187;28;20493;-70
2023/07/19 06:15:02;;;;;;;19.48;9.55;;;15.80;99.90;;;;;;5042354;28;20037;-69
2023/07/19 06:17:28;;;;;;;14.50;8.25;;;15.80;99.90;;;;;;5042564;28;20026;-70
2023/07/19 06:19:53;;;;;;;12.43;8.07;;;15.90;99.90;;;;;;5040418;28;20055;-70
2023/07/19 06:22:19;;;;;;;13.80;9.30;;;15.90;99.90;;;;;;5041812;28;20052;-70
2023/07/19 06:24:45;;;;;;;15.60;8.60;;;16.00;99.90;;;;;;5043001;28;20466;-69
2023/07/19 06:27:10;;;;;;;15.43;8.82;;;16.00;99.90;;;;;;5042955;28;20041;-71
2023/07/19 06:29:36;;;;;;;19.17;8.27;;;16.00;99.90;;;;;;5042963;28;20025;-72
2023/07/19 06:32:01;;;;;;;14.45;9.30;;;16.00;99.90;;;;;;5042909;28;20434;-69
2023/07/19 06:34:27;;;;;;;13.07;7.97;;;16.00;99.90;;;;;;5041249;28;20025;-70
2023/07/19 06:36:52;;;;;;;18.00;8.82;;;16.00;99.90;;;;;;5042117;28;20026;-70
2023/07/19 06:39:18;;;;;;;17.20;9.05;;;16.10;99.90;;;;;;5040784;28;20143;-69
2023/07/19 06:41:44;;;;;;;14.27;8.73;;;16.10;99.90;;;;;;5041144;28;20029;-70
2023/07/19 06:44:12;;;;;;;12.07;8.25;;;16.10;99.90;;;;;;5042693;28;20025;-70
2023/07/19 06:46:37;;;;;;;16.83;9.07;;;16.20;99.90;;;;;;5042689;28;20398;-71
2023/07/19 06:49:03;;;;;;;12.43;8.35;;;16.30;99.90;;;;;;5041580;28;20022;-70
2023/07/19 06:51:29;;;;;;;13.50;7.85;;;16.30;99.90;;;;;;5041628;28;20468;-70
2023/07/19 06:53:57;;;;;;;13.35;8.30;;;16.40;99.90;;;;;;5041758;28;20021;-69
2023/07/19 06:56:23;;;;;;;13.65;7.90;;;16.40;99.90;;;;;;5038743;28;20029;-69
2023/07/19 06:58:49;;;;;;;12.98;7.60;;;16.40;99.90;;;;;;5041626;28;20043;-70
2023/07/19 07:01:14;;;;;;;11.60;7.47;;;16.50;99.90;;;;;;5040574;28;20056;-69
2023/07/19 07:03:40;;;;;;;14.75;7.30;;;16.50;99.90;;;;;;5041304;28;20089;-71
2023/07/19 07:06:06;;;;;;;13.77;7.38;;;16.60;99.90;;;;;;5042203;28;20029;-69
2023/07/19 07:08:34;;;;;;;9.25;5.80;;;16.70;99.90;;;;;;5040369;28;20060;-69
2023/07/19 07:11:01;;;;;;;13.02;7.18;;;16.80;99.90;;;;;;5041051;28;20029;-69
2023/07/19 07:13:27;;;;;;;14.05;7.63;;;16.90;99.90;;;;;;5041042;28;20374;-69
2023/07/19 07:15:53;;;;;;;7.97;5.63;;;17.00;99.90;;;;;;5040432;28;20040;-69
2023/07/19 07:18:18;;;;;;;14.82;7.28;;;17.10;99.90;;;;;;5041753;28;20037;-70
2023/07/19 07:20:45;;;;;;;10.40;5.82;;;17.10;99.90;;;;;;5042088;28;20486;-69
2023/07/19 07:23:10;;;;;;;8.55;5.25;;;17.20;99.90;;;;;;5038713;28;20014;-70
2023/07/19 07:25:36;;;;;;;8.02;4.90;;;17.20;99.90;;;;;;5041774;28;20096;-71
2023/07/19 07:28:02;;;;;;;10.68;5.15;;;17.30;99.90;;;;;;5042326;28;20053;-70
2023/07/19 07:30:27;;;;;;;7.55;5.03;;;17.30;99.90;;;;;;5038049;28;20034;-70
2023/07/19 07:32:53;;;;;;;11.50;5.15;;;17.40;99.90;;;;;;5039955;28;20048;-70
2023/07/19 07:35:19;;;;;;;8.73;4.93;;;17.40;99.90;;;;;;5042093;28;20026;-70
2023/07/19 07:37:44;;;;;;;9.30;4.68;;;17.40;99.90;;;;;;5040679;28;20056;-70
2023/07/19 07:40:11;;;;;;;6.88;4.82;;;17.40;99.90;;;;;;5039229;28;20065;-70
2023/07/19 07:42:37;;;;;;;13.85;6.03;;;17.50;99.90;;;;;;5041870;28;20029;-69
2023/07/19 07:45:05;;;;;;;9.10;4.72;;;17.50;99.90;;;;;;5040287;28;20284;-70
2023/07/19 07:47:31;;;;;;;9.23;4.70;;;17.60;99.90;;;;;;5041217;28;20522;-69
2023/07/19 07:49:57;;;;;;;10.50;4.78;;;17.60;99.90;;;;;;5041494;28;20053;-69
2023/07/19 07:52:22;;;;;;;7.25;4.53;;;17.70;99.90;;;;;;5041254;28;20044;-70
2023/07/19 07:54:51;;;;;;;7.85;4.65;;;17.70;99.90;;;;;;5040132;28;20018;-69
2023/07/19 07:57:17;;;;;;;6.75;4.75;;;17.80;99.90;;;;;;5041569;28;20075;-69
2023/07/19 07:59:44;;;;;;;6.97;4.38;;;17.80;99.90;;;;;;5040864;28;20065;-69
2023/07/19 08:02:09;;;;;;;6.65;4.65;;;17.90;99.90;;;;;;5041287;28;20041;-71
2023/07/19 08:04:35;;;;;;;6.50;4.30;;;18.00;99.90;;;;;;5039858;28;20040;-71
2023/07/19 08:07:01;;;;;;;11.57;4.93;;;18.00;99.90;;;;;;5039853;28;20025;-70
2023/07/19 08:09:27;;;;;;;9.23;4.80;;;18.10;99.90;;;;;;5041834;28;20026;-71
2023/07/19 08:11:53;;;;;;;7.90;4.60;;;18.20;99.90;;;;;;5041051;28;20021;-70
2023/07/19 08:14:22;;;;;;;11.35;4.90;;;18.30;99.90;;;;;;5041373;28;20028;-70
2023/07/19 08:16:49;;;;;;;6.88;4.43;;;18.40;99.90;;;;;;5041196;28;20048;-71
2023/07/19 08:19:16;;;;;;;8.77;4.80;;;18.60;99.90;;;;;;5043621;28;20051;-70
2023/07/19 08:21:41;;;;;;;9.38;5.20;;;18.70;99.90;;;;;;5044813;28;20560;-71
2023/07/19 08:24:07;;;;;;;7.78;5.13;;;18.80;99.90;;;;;;5045727;28;20018;-71
2023/07/19 08:26:32;;;;;;;9.40;4.78;;;18.80;99.90;;;;;;5045533;28;20117;-70
2023/07/19 08:28:58;;;;;;;9.85;4.97;;;18.80;99.90;;;;;;5041990;28;20041;-70
2023/07/19 08:31:24;;;;;;;11.80;4.70;;;18.80;99.90;;;;;;5043173;28;20025;-71
2023/07/19 08:33:49;;;;;;;8.73;5.47;;;18.80;99.90;;;;;;5042557;28;20121;-71
2023/07/19 08:36:15;;;;;;;11.07;6.28;;;18.90;99.90;;;;;;5043734;28;20030;-70
2023/07/19 08:38:41;;;;;;;11.35;6.75;;;18.90;99.90;;;;;;5044804;28;20502;-71
2023/07/19 08:41:07;;;;;;;12.30;7.93;;;19.00;99.90;;;;;;5044386;28;20025;-71
2023/07/19 08:43:36;;;;;;;15.63;8.23;;;19.20;99.90;;;;;;5043078;28;20032;-70
2023/07/19 08:46:02;;;;;;;12.32;8.23;;;19.30;99.90;;;;;;5044035;28;20099;-70
2023/07/19 08:48:31;;;;;;;12.05;7.45;;;19.40;99.90;;;;;;5038302;28;20026;-70
2023/07/19 08:50:59;;;;;;;11.13;7.60;;;19.40;99.90;;;;;;5038482;28;20049;-71
2023/07/19 08:53:26;;;;;;;14.10;8.35;;;19.50;99.90;;;;;;5043470;28;20466;-72
2023/07/19 08:55:52;;;;;;;12.52;9.30;;;19.50;99.90;;;;;;5042796;28;20427;-70
2023/07/19 08:58:18;;;;;;;15.50;9.20;;;19.50;99.90;;;;;;5045011;28;20032;-71
2023/07/19 09:00:46;;;;;;;13.65;8.50;;;19.50;99.90;;;;;;5044352;28;20086;-70
2023/07/19 09:03:12;;;;;;;16.50;8.77;;;19.50;99.90;;;;;;5042691;28;20025;-71
2023/07/19 09:05:38;;;;;;;12.68;8.57;;;19.50;99.90;;;;;;5044873;28;20037;-72
2023/07/19 09:08:04;;;;;;;10.68;8.05;;;19.40;99.90;;;;;;5042180;28;20109;-71
2023/07/19 09:10:30;;;;;;;9.93;7.07;;;19.40;99.90;;;;;;5042643;28;20022;-71
2023/07/19 09:12:57;;;;;;;15.95;9.30;;;19.40;99.90;;;;;;5044390;28;20024;-70
2023/07/19 09:15:22;;;;;;;15.35;9.65;;;19.40;99.90;;;;;;5043510;28;20021;-71
2023/07/19 09:17:49;;;;;;;14.77;8.98;;;19.40;99.90;;;;;;5045681;28;20013;-70
2023/07/19 09:20:16;;;;;;;14.02;8.80;;;19.40;99.90;;;;;;5044079;28;20769;-71
2023/07/19 09:22:43;;;;;;;13.13;7.63;;;19.40;99.90;;;;;;5042559;28;20095;-71
2023/07/19 09:25:10;;;;;;;12.20;7.72;;;19.30;99.90;;;;;;5043914;28;20026;-70
2023/07/19 09:27:36;;;;;;;15.75;8.40;;;19.30;99.90;;;;;;5044190;28;20021;-70
2023/07/19 09:30:08;;;;;;;12.07;7.55;;;19.40;99.90;;;;;;5042138;28;20037;-70
2023/07/19 09:32:34;;;;;;;10.35;7.50;;;19.40;99.90;;;;;;5043163;28;20397;-71
2023/07/19 09:35:03;;;;;;;12.40;7.05;;;19.50;99.90;;;;;;5043944;28;20032;-70
2023/07/19 09:37:29;;;;;;;13.43;6.70;;;19.50;99.90;;;;;;5042049;28;20087;-69
2023/07/19 09:39:56;;;;;;;11.43;7.13;;;19.50;99.90;;;;;;5042383;28;20041;-70
2023/07/19 09:42:24;;;;;;;11.00;6.97;;;19.60;99.90;;;;;;5043152;28;20111;-70
2023/07/19 09:44:50;;;;;;;14.75;7.32;;;19.60;99.90;;;;;;5041284;28;20021;-70
2023/07/19 09:47:15;;;;;;;11.43;7.13;;;19.60;99.90;;;;;;5043615;28;20028;-70
2023/07/19 09:49:42;;;;;;;11.00;7.15;;;19.60;99.90;;;;;;5043158;28;20032;-71
2023/07/19 09:52:12;;;;;;;11.63;6.78;;;19.50;99.90;;;;;;5040346;28;20046;-71
2023/07/19 09:54:39;;;;;;;9.30;6.45;;;19.50;99.90;;;;;;5043885;28;20025;-70
2023/07/19 09:57:05;;;;;;;9.80;6.20;;;19.60;99.90;;;;;;5042039;28;20116;-71
2023/07/19 09:59:44;;;;;;;9.43;6.40;;;19.60;99.90;;;;;;5040628;28;20064;-71
2023/07/19 10:02:11;;;;;;;10.95;7.70;;;19.60;99.90;;;;;;5043048;28;20104;-71
2023/07/19 10:04:39;;;;;;;10.77;7.00;;;19.60;99.90;;;;;;5041973;28;20541;-71
2023/07/19 10:07:08;;;;;;;10.20;7.40;;;19.50;99.90;;;;;;5042094;28;20559;-71
2023/07/19 10:09:44;;;;;;;10.43;6.93;;;19.60;99.90;;;;;;5042468;28;20037;-71
2023/07/19 10:12:16;;;;;;;10.70;7.20;;;19.60;99.90;;;;;;5043288;28;20044;-70
2023/07/19 10:14:55;;;;;;;10.52;6.55;;;19.60;99.90;;;;;;5041077;28;20036;-71
2023/07/19 10:17:21;;;;;;;11.10;7.20;;;19.60;99.90;;;;;;5041349;28;20459;-70
2023/07/19 10:20:14;;;;;;;16.60;6.97;;;19.60;99.90;;;;;;5041702;28;20033;-72
2023/07/19 10:22:51;;;;;;;9.88;6.30;;;19.60;99.90;;;;;;5042181;28;20068;-69
2023/07/19 10:25:24;;;;;;;9.93;6.47;;;19.60;99.90;;;;;;5042163;28;20153;-70
2023/07/19 10:27:58;;;;;;;9.32;6.55;;;19.70;99.90;;;;;;5040757;28;20048;-71
2023/07/19 10:30:45;;;;;;;11.25;6.30;;;19.90;99.90;;;;;;5037294;28;20044;-72
2023/07/19 10:33:24;;;;;;;11.80;6.15;;;20.20;99.90;;;;;;5039208;28;20040;-73
2023/07/19 10:35:54;;;;;;;11.35;5.38;;;20.50;99.90;;;;;;5042715;28;20018;-71
2023/07/19 10:38:21;;;;;;;9.18;4.60;;;20.60;99.90;;;;;;5041987;28;20962;-69
2023/07/19 10:41:02;;;;;;;9.98;4.47;;;20.60;99.90;;;;;;5040200;28;20092;-70
2023/07/19 10:43:33;;;;;;;8.20;4.65;;;20.60;99.90;;;;;;5041356;28;21153;-70
2023/07/19 10:46:03;;;;;;;9.60;4.50;;;20.50;99.90;;;;;;5041880;28;20037;-69
2023/07/19 10:48:29;;;;;;;9.30;5.38;;;20.30;99.90;;;;;;5039741;28;20025;-69
2023/07/19 10:50:57;;;;;;;9.52;4.88;;;20.20;99.90;;;;;;5040638;28;20084;-70
2023/07/19 10:53:25;;;;;;;7.38;5.15;;;20.20;99.90;;;;;;5042343;28;20030;-71
2023/07/19 10:55:55;;;;;;;10.32;5.47;;;20.30;99.90;;;;;;5040023;28;20025;-70
2023/07/19 10:58:21;;;;;;;8.38;6.18;;;20.50;99.90;;;;;;5041000;28;20042;-70
2023/07/19 11:00:47;;;;;;;14.85;6.07;;;20.70;99.90;;;;;;5040653;28;20510;-70
2023/07/19 11:03:14;;;;;;;11.07;6.22;;;20.70;99.90;;;;;;5040016;28;20064;-71
2023/07/19 11:05:45;;;;;;;10.82;6.43;;;20.70;99.90;;;;;;5040443;28;20029;-71
2023/07/19 11:08:28;;;;;;;11.00;4.43;;;20.70;99.90;;;;;;5041877;28;20048;-69
2023/07/19 11:10:56;;;;;;;6.05;3.70;;;20.50;99.90;;;;;;5042170;28;20052;-70
2023/07/19 11:13:24;;;;;;;5.88;3.30;;;20.50;99.90;;;;;;5040721;28;20474;-71
2023/07/19 11:15:58;;;;;;;8.07;3.50;;;20.50;99.90;;;;;;5041800;28;20022;-70
2023/07/19 11:18:38;;;;;;;6.80;3.60;;;20.50;99.90;;;;;;5039116;28;20056;-72
2023/07/19 11:21:04;;;;;;;8.20;2.95;;;20.50;99.90;;;;;;5041542;28;20067;-73
2023/07/19 11:23:30;;;;;;;8.27;2.80;;;20.50;99.90;;;;;;5041109;28;20057;-72
2023/07/19 11:26:07;;;;;;;5.35;2.00;;;20.70;99.90;;;;;;5036343;28;20573;-70
2023/07/19 11:28:46;;;;;;;3.63;1.70;;;20.70;99.90;;;;;;5040461;28;20398;-71
2023/07/19 11:31:34;;;;;;;4.05;1.92;;;20.90;99.90;;;;;;5038654;28;20036;-70
2023/07/19 11:33:59;;;;;;;4.00;1.73;;;21.10;99.90;;;;;;5042100;28;20593;-70
2023/07/19 11:36:25;;;;;;;4.32;1.70;;;21.30;99.90;;;;;;5042306;28;20022;-70
2023/07/19 11:38:51;;;;;;;4.53;1.38;;;21.40;99.90;;;;;;5041506;28;20029;-69
2023/07/19 11:41:17;;;;;;;2.30;1.30;;;21.60;99.90;;;;;;5040484;28;20028;-70
2023/07/19 11:43:45;;;;;;;3.40;1.58;;;21.80;99.90;;;;;;5042149;28;20026;-70
2023/07/19 11:46:14;;;;;;;3.70;1.30;;;21.90;99.90;;;;;;5042278;28;20036;-70
2023/07/19 11:48:40;;;;;;;3.25;1.30;;;22.00;99.90;;;;;;5041118;28;20033;-71
2023/07/19 11:51:06;;;;;;;4.25;1.40;;;22.00;99.90;;;;;;5041749;28;20060;-71
2023/07/19 11:53:32;;;;;;;6.32;1.33;;;21.90;99.90;;;;;;5044040;28;20022;-69
2023/07/19 11:55:57;;;;;;;4.20;1.60;;;21.80;99.90;;;;;;5046056;28;20032;-70
2023/07/19 11:58:23;;;;;;;2.38;1.42;;;21.80;99.90;;;;;;5047400;28;20579;-69
2023/07/19 12:00:48;;;;;;;2.75;1.15;;;21.90;99.90;;;;;;5044440;28;20053;-69
2023/07/19 12:03:14;;;;;;;1.58;1.10;;;22.20;99.90;;;;;;5045677;28;20021;-70
2023/07/19 12:05:40;;;;;;;3.15;1.27;;;22.20;99.90;;;;;;5046435;28;20025;-70
2023/07/19 12:08:06;;;;;;;5.25;1.55;;;22.30;99.90;;;;;;5044430;28;20049;-70
2023/07/19 12:10:32;;;;;;;3.45;1.20;;;22.40;99.90;;;;;;5046113;28;20018;-70
2023/07/19 12:12:57;;;;;;;6.85;1.30;;;22.40;99.90;;;;;;5045691;28;20453;-69
2023/07/19 12:15:23;;;;;;;5.45;1.63;;;22.20;99.90;;;;;;5044721;28;20041;-71
2023/07/19 12:17:50;;;;;;;2.70;1.35;;;22.20;99.90;;;;;;5045745;28;20032;-67
2023/07/19 12:20:15;;;;;;;4.97;1.50;;;22.30;99.90;;;;;;5045037;28;20044;-69
2023/07/19 12:22:43;;;;;;;5.53;1.42;;;22.30;99.90;;;;;;5043625;28;20029;-70
2023/07/19 12:25:09;;;;;;;4.28;1.95;;;22.30;99.90;;;;;;5043223;28;20025;-70
2023/07/19 12:27:35;;;;;;;3.05;1.70;;;22.30;99.90;;;;;;5040733;28;20052;-72
2023/07/19 12:30:02;;;;;;;6.82;1.35;;;22.10;99.90;;;;;;5043959;28;20040;-73
2023/07/19 12:32:28;;;;;;;5.95;1.50;;;21.80;99.90;;;;;;5044077;28;20501;-71
2023/07/19 12:34:54;;;;;;;2.60;1.70;;;21.60;99.90;;;;;;5045297;28;20025;-73
2023/07/19 12:37:20;;;;;;;4.97;2.03;;;21.30;99.90;;;;;;5045300;28;20398;-70